Warning: Javascript must be enabled to use all the features on this page!


Page Loading - Please Wait...

Click to hideNews Bulletins

Peak Streamflow for the Nation

USGS 02081500 TAR RIVER NEAR TAR RIVER, NC

Granville County, North Carolina
Hydrologic Unit Code 03020101
Latitude  36°11'39", Longitude  78°34'59" NAD83
Drainage area 167  square miles
Gage datum 286.34 feet above NAVD88
Output formats
Table
Graph
Tab-separated file
peakfq (watstore) format
Reselect output format
Water
Year
Date Gage
Height
(feet)
Stream-
flow
(cfs)
1940 1940-05-25 11.90 5,550
1941 1940-11-15 10.64 4,380
1942 1942-02-17 8.03 2,370
1943 1943-04-20 9.18 3,220
1944 1944-09-30 14.27 8,050
1945 1945-09-18 16.51 10,600
1946 1946-02-11 10.83 4,560
1947 1947-01-14   2,1002
1948 1947-10-10 13.21 6,840
1949 1948-11-29 12.00 5,640
1950 1950-07-10 9.49 3,500
1951 1951-04-03 7.24 1,940
1952 1952-09-01 13.36 7,060
1953 1952-11-20 13.78 7,500
1954 1954-06-17 11.70 5,370
1955 1955-08-18 18.07 13,100
1956 1956-03-17 11.19 4,920
1957 1957-02-01 13.00 6,500
1958 1958-04-06 11.29 4,790
1959 1958-12-29 13.00 6,050
1960 1960-02-19 11.30 4,560
1961 1961-02-08 9.50 3,210
1962 1962-01-07 13.39 6,450
1963 1963-03-07 12.44 5,870
1964 1964-02-06 8.80 2,900
1965 1965-02-08 11.89 5,490
1966 1966-03-01 9.62 3,490
1967 1967-06-19 15.10 9,030
1968 1968-03-13 9.08 3,100
1969 1969-07-29 10.94 4,600
1970 1970-07-11 9.52 3,410
1971 1971-09-13 9.88 3,690
1972 1972-06-22 12.82 6,420
1973 1973-08-19 16.10 10,300
1974 1974-09-07 13.58 7,240
1975 1975-03-14 15.18 9,130
1976 1976-01-28 8.05 2,390
1977 1977-01-10 6.95 1,730
1978 1978-04-27 18.87 14,200
1979 1979-02-25 12.65 6,340
1980 1979-11-12 13.54 7,230
1981 1981-08-20 6.67 1,690
1982 1982-06-11 11.14 4,910
1983 1983-04-16 14.00 7,730
1984 1984-03-06 14.52 8,330
1985 1985-01-04 9.06 3,230
1986 1985-11-22 11.76 5,480
1987 1987-03-02 13.88 7,610
1988 1988-01-20 5.50 1,110
1989 1989-02-23   2,7001
1990 1990-05-30 9.31 3,420
1991 1991-03-30 10.86 4,670
1992 1992-01-04 13.70 7,420
1993 1993-03-05 18.17 13,200
1994 1994-03-03 12.84 6,530
1995 1995-06-29 10.84 4,650
1996 1996-09-06 24.06 19,900
1997 1997-04-29 10.14 3,780
1998 1998-03-19 19.36 13,200
1999 1999-09-16 17.59 11,000
2000 2000-03-17 11.36 4,990
2001 2001-03-30 12.25 5,760
2002 2002-01-20 4.76 815
2003 2002-10-12 17.16 10,800
2004 2004-08-31 10.37 4,180
2005 2004-12-11 10.26 4,100
2006 2006-07-06 8.37 2,740
2007 2006-11-16 10.66 4,410
2008 2008-09-07 13.48 6,900
2009 2009-03-02 8.85 3,060
2010 2010-02-06 12.21 5,720
2011 2011-03-31 6.66 1,830
2012 2012-09-19 6.58 1,830
2013 2013-06-08 13.02 6,700
2014 2014-05-16 14.11 7,830
2015 2014-12-25 8.52 3,080
2016 2015-12-24 14.82 8,550
2017 2016-10-09 17.56 11,500
2018 2018-09-18 20.04 14,5009
2019 2018-11-13 15.81 9,590
2020 2020-02-07 12.88 6,650
2021 2020-12-25 12.73 6,510
2022 2022-03-09 7.53 2,430
2023 2023-07-14 13.19 6,680
?
  Peak Streamflow Qualification Codes.